Terminal Aerodrome Forecast
Issued by NWS North Platte, NE

Home | Current Version | Previous Version | Text Only | Print | Product List | Glossary Off
Versions: 1 2 3 4 5 6 7 8 9 10 11 12 13 14 15 16 17 18

000
FTUS43 KLBF 231100
TAFVTN
TAF
KVTN 231120Z 2312/2412 11008KT P6SM SCT100
     FM231500 16012KT P6SM SCT100
     FM231800 17016G28KT P6SM SCT100
     FM240400 18012G22KT P6SM SCT100=

USA.gov is the U.S. government's official web portal to all federal, state and local government web resources and services.